Terminal Aerodrome Forecast
Issued by NWS

Home | Current Version | Previous Version | Text Only | Print | Product List | Glossary Off
Versions: 1 2 3 4 5 6 7 8 9 10 11 12 13 14 15 16 17 18

000
FTUS43 KICT 291700
TAFRSL
TAF
KRSL 291720Z 2918/3018 17013KT P6SM FEW080
     FM300000 14011KT P6SM SCT080 BKN200
     FM300800 16014KT P6SM VCTS BKN070CB
     FM301500 19014G21KT P6SM VCTS BKN060CB OVC090=

USA.gov is the U.S. government's official web portal to all federal, state and local government web resources and services.